sensor_id;sensor_type;location;lat;lon;timestamp;P1;durP1;ratioP1;P2;durP2;ratioP2
4202;SDS011;2115;51.038;7.006;2023-06-01T00:01:27;598.90;;;209.53;;
4202;SDS011;2115;51.038;7.006;2023-06-01T00:03:58;590.20;;;206.13;;
4202;SDS011;2115;51.038;7.006;2023-06-01T00:06:23;595.73;;;202.93;;
4202;SDS011;2115;51.038;7.006;2023-06-01T00:08:50;625.63;;;215.73;;
4202;SDS011;2115;51.038;7.006;2023-06-01T00:11:16;643.40;;;225.20;;
4202;SDS011;2115;51.038;7.006;2023-06-01T00:13:41;624.10;;;216.37;;
4202;SDS011;2115;51.038;7.006;2023-06-01T00:16:07;607.77;;;209.63;;
4202;SDS011;2115;51.038;7.006;2023-06-01T00:18:32;604.00;;;204.30;;
4202;SDS011;2115;51.038;7.006;2023-06-01T00:20:57;615.77;;;207.87;;
4202;SDS011;2115;51.038;7.006;2023-06-01T00:23:25;599.67;;;207.43;;
4202;SDS011;2115;51.038;7.006;2023-06-01T00:25:50;606.10;;;205.90;;
4202;SDS011;2115;51.038;7.006;2023-06-01T00:28:16;608.77;;;204.30;;
4202;SDS011;2115;51.038;7.006;2023-06-01T00:30:41;620.53;;;210.63;;
4202;SDS011;2115;51.038;7.006;2023-06-01T00:33:06;619.53;;;207.97;;
4202;SDS011;2115;51.038;7.006;2023-06-01T00:35:32;603.00;;;204.50;;
4202;SDS011;2115;51.038;7.006;2023-06-01T00:37:57;608.40;;;203.23;;
4202;SDS011;2115;51.038;7.006;2023-06-01T00:40:22;602.30;;;201.37;;
4202;SDS011;2115;51.038;7.006;2023-06-01T00:42:48;596.57;;;203.67;;
4202;SDS011;2115;51.038;7.006;2023-06-01T00:45:13;618.97;;;209.40;;
4202;SDS011;2115;51.038;7.006;2023-06-01T00:47:39;644.20;;;214.67;;
4202;SDS011;2115;51.038;7.006;2023-06-01T00:50:09;628.73;;;210.40;;
4202;SDS011;2115;51.038;7.006;2023-06-01T00:52:36;606.67;;;208.83;;
4202;SDS011;2115;51.038;7.006;2023-06-01T00:55:02;612.13;;;208.33;;
4202;SDS011;2115;51.038;7.006;2023-06-01T00:57:29;622.87;;;207.87;;
4202;SDS011;2115;51.038;7.006;2023-06-01T00:59:55;613.23;;;205.77;;
4202;SDS011;2115;51.038;7.006;2023-06-01T01:02:20;612.10;;;199.70;;
4202;SDS011;2115;51.038;7.006;2023-06-01T01:04:46;621.27;;;204.80;;
4202;SDS011;2115;51.038;7.006;2023-06-01T01:12:46;599.73;;;202.03;;
4202;SDS011;2115;51.038;7.006;2023-06-01T01:15:21;617.63;;;201.83;;
4202;SDS011;2115;51.038;7.006;2023-06-01T01:17:50;615.13;;;200.93;;
4202;SDS011;2115;51.038;7.006;2023-06-01T01:20:24;632.23;;;206.63;;
4202;SDS011;2115;51.038;7.006;2023-06-01T01:30:53;621.20;;;194.97;;
4202;SDS011;2115;51.038;7.006;2023-06-01T01:33:19;613.13;;;199.10;;
4202;SDS011;2115;51.038;7.006;2023-06-01T01:35:46;593.80;;;197.87;;
4202;SDS011;2115;51.038;7.006;2023-06-01T01:38:12;592.70;;;195.30;;
4202;SDS011;2115;51.038;7.006;2023-06-01T01:40:38;605.37;;;197.50;;
4202;SDS011;2115;51.038;7.006;2023-06-01T01:43:03;624.33;;;201.33;;
4202;SDS011;2115;51.038;7.006;2023-06-01T01:45:28;620.67;;;199.10;;
4202;SDS011;2115;51.038;7.006;2023-06-01T01:48:17;589.80;;;189.63;;
4202;SDS011;2115;51.038;7.006;2023-06-01T01:50:48;609.37;;;197.67;;
4202;SDS011;2115;51.038;7.006;2023-06-01T01:53:15;591.30;;;194.03;;
4202;SDS011;2115;51.038;7.006;2023-06-01T01:55:41;590.77;;;191.77;;
4202;SDS011;2115;51.038;7.006;2023-06-01T01:58:07;578.37;;;186.63;;
4202;SDS011;2115;51.038;7.006;2023-06-01T02:00:33;592.20;;;192.97;;
4202;SDS011;2115;51.038;7.006;2023-06-01T02:02:59;594.33;;;201.27;;
4202;SDS011;2115;51.038;7.006;2023-06-01T02:05:25;575.13;;;187.13;;
4202;SDS011;2115;51.038;7.006;2023-06-01T02:07:50;603.77;;;195.63;;
4202;SDS011;2115;51.038;7.006;2023-06-01T02:10:16;585.93;;;188.07;;
4202;SDS011;2115;51.038;7.006;2023-06-01T02:12:41;587.17;;;197.93;;
4202;SDS011;2115;51.038;7.006;2023-06-01T02:15:07;589.53;;;192.00;;
4202;SDS011;2115;51.038;7.006;2023-06-01T02:17:32;581.97;;;186.23;;
4202;SDS011;2115;51.038;7.006;2023-06-01T02:19:58;591.03;;;189.77;;
4202;SDS011;2115;51.038;7.006;2023-06-01T02:22:23;574.60;;;180.20;;
4202;SDS011;2115;51.038;7.006;2023-06-01T02:24:49;603.23;;;193.40;;
4202;SDS011;2115;51.038;7.006;2023-06-01T02:27:14;611.13;;;194.67;;
4202;SDS011;2115;51.038;7.006;2023-06-01T02:29:40;616.53;;;197.40;;
4202;SDS011;2115;51.038;7.006;2023-06-01T02:32:05;601.30;;;192.53;;
4202;SDS011;2115;51.038;7.006;2023-06-01T02:34:31;613.40;;;200.87;;
4202;SDS011;2115;51.038;7.006;2023-06-01T02:36:56;608.60;;;191.83;;
4202;SDS011;2115;51.038;7.006;2023-06-01T02:39:22;605.90;;;191.13;;
4202;SDS011;2115;51.038;7.006;2023-06-01T02:41:48;610.53;;;193.13;;
4202;SDS011;2115;51.038;7.006;2023-06-01T02:44:14;623.07;;;197.43;;
4202;SDS011;2115;51.038;7.006;2023-06-01T02:46:39;596.17;;;191.97;;
4202;SDS011;2115;51.038;7.006;2023-06-01T02:49:04;611.70;;;199.57;;
4202;SDS011;2115;51.038;7.006;2023-06-01T02:51:30;610.17;;;191.63;;
4202;SDS011;2115;51.038;7.006;2023-06-01T02:53:56;600.83;;;188.30;;
4202;SDS011;2115;51.038;7.006;2023-06-01T02:56:21;581.37;;;184.27;;
4202;SDS011;2115;51.038;7.006;2023-06-01T02:58:47;579.80;;;180.30;;
4202;SDS011;2115;51.038;7.006;2023-06-01T03:01:13;585.60;;;186.00;;
4202;SDS011;2115;51.038;7.006;2023-06-01T03:03:39;602.37;;;188.57;;
4202;SDS011;2115;51.038;7.006;2023-06-01T03:06:05;587.13;;;182.90;;
4202;SDS011;2115;51.038;7.006;2023-06-01T03:08:31;577.47;;;176.43;;
4202;SDS011;2115;51.038;7.006;2023-06-01T03:10:57;587.53;;;183.17;;
4202;SDS011;2115;51.038;7.006;2023-06-01T03:13:22;585.47;;;181.87;;
4202;SDS011;2115;51.038;7.006;2023-06-01T03:15:48;593.03;;;187.40;;
4202;SDS011;2115;51.038;7.006;2023-06-01T03:18:15;594.03;;;183.07;;
4202;SDS011;2115;51.038;7.006;2023-06-01T03:20:40;597.07;;;185.97;;
4202;SDS011;2115;51.038;7.006;2023-06-01T03:23:06;588.20;;;180.47;;
4202;SDS011;2115;51.038;7.006;2023-06-01T03:25:31;571.90;;;175.03;;
4202;SDS011;2115;51.038;7.006;2023-06-01T03:27:58;595.30;;;185.87;;
4202;SDS011;2115;51.038;7.006;2023-06-01T03:30:23;596.40;;;183.43;;
4202;SDS011;2115;51.038;7.006;2023-06-01T03:32:49;612.80;;;185.97;;
4202;SDS011;2115;51.038;7.006;2023-06-01T03:35:14;594.53;;;181.07;;
4202;SDS011;2115;51.038;7.006;2023-06-01T03:37:40;579.03;;;177.37;;
4202;SDS011;2115;51.038;7.006;2023-06-01T03:40:07;573.80;;;174.13;;
4202;SDS011;2115;51.038;7.006;2023-06-01T03:42:37;566.73;;;179.50;;
4202;SDS011;2115;51.038;7.006;2023-06-01T03:45:06;568.30;;;176.70;;
4202;SDS011;2115;51.038;7.006;2023-06-01T03:47:32;579.47;;;181.80;;
4202;SDS011;2115;51.038;7.006;2023-06-01T03:49:58;589.90;;;181.53;;
4202;SDS011;2115;51.038;7.006;2023-06-01T03:52:24;582.10;;;179.63;;
4202;SDS011;2115;51.038;7.006;2023-06-01T03:54:50;577.07;;;179.03;;
4202;SDS011;2115;51.038;7.006;2023-06-01T03:57:17;592.77;;;183.97;;
4202;SDS011;2115;51.038;7.006;2023-06-01T03:59:43;574.30;;;178.47;;
4202;SDS011;2115;51.038;7.006;2023-06-01T04:02:08;585.07;;;179.30;;
4202;SDS011;2115;51.038;7.006;2023-06-01T04:04:34;574.77;;;175.97;;
4202;SDS011;2115;51.038;7.006;2023-06-01T04:07:00;583.50;;;179.43;;
4202;SDS011;2115;51.038;7.006;2023-06-01T04:09:27;584.07;;;178.53;;
4202;SDS011;2115;51.038;7.006;2023-06-01T04:11:54;572.73;;;177.10;;
4202;SDS011;2115;51.038;7.006;2023-06-01T04:14:20;561.77;;;173.17;;
4202;SDS011;2115;51.038;7.006;2023-06-01T04:16:45;564.67;;;173.03;;
4202;SDS011;2115;51.038;7.006;2023-06-01T04:19:11;568.60;;;174.93;;
4202;SDS011;2115;51.038;7.006;2023-06-01T04:21:36;562.63;;;175.13;;
4202;SDS011;2115;51.038;7.006;2023-06-01T04:24:02;562.70;;;173.80;;
4202;SDS011;2115;51.038;7.006;2023-06-01T04:26:27;557.77;;;172.37;;
4202;SDS011;2115;51.038;7.006;2023-06-01T04:28:53;566.33;;;175.53;;
4202;SDS011;2115;51.038;7.006;2023-06-01T04:31:22;565.43;;;169.03;;
4202;SDS011;2115;51.038;7.006;2023-06-01T04:33:48;566.43;;;175.00;;
4202;SDS011;2115;51.038;7.006;2023-06-01T04:36:21;557.70;;;168.57;;
4202;SDS011;2115;51.038;7.006;2023-06-01T04:38:50;554.70;;;174.17;;
4202;SDS011;2115;51.038;7.006;2023-06-01T04:41:19;555.67;;;172.60;;
4202;SDS011;2115;51.038;7.006;2023-06-01T04:43:46;572.43;;;175.27;;
4202;SDS011;2115;51.038;7.006;2023-06-01T04:46:18;550.63;;;169.73;;
4202;SDS011;2115;51.038;7.006;2023-06-01T04:48:45;551.63;;;169.83;;
4202;SDS011;2115;51.038;7.006;2023-06-01T04:51:12;545.67;;;169.27;;
4202;SDS011;2115;51.038;7.006;2023-06-01T04:53:42;547.57;;;167.03;;
4202;SDS011;2115;51.038;7.006;2023-06-01T04:56:08;555.07;;;168.37;;
4202;SDS011;2115;51.038;7.006;2023-06-01T04:58:33;556.53;;;172.83;;
4202;SDS011;2115;51.038;7.006;2023-06-01T05:01:08;548.27;;;167.47;;
4202;SDS011;2115;51.038;7.006;2023-06-01T05:03:33;561.20;;;170.97;;
4202;SDS011;2115;51.038;7.006;2023-06-01T05:05:59;547.43;;;169.20;;
4202;SDS011;2115;51.038;7.006;2023-06-01T05:08:25;550.87;;;170.43;;
4202;SDS011;2115;51.038;7.006;2023-06-01T05:10:50;566.77;;;176.07;;
4202;SDS011;2115;51.038;7.006;2023-06-01T05:13:16;556.07;;;168.97;;
4202;SDS011;2115;51.038;7.006;2023-06-01T05:15:41;556.33;;;168.33;;
4202;SDS011;2115;51.038;7.006;2023-06-01T05:18:07;550.63;;;172.67;;
4202;SDS011;2115;51.038;7.006;2023-06-01T05:20:32;552.97;;;170.30;;
4202;SDS011;2115;51.038;7.006;2023-06-01T05:22:57;554.73;;;170.57;;
4202;SDS011;2115;51.038;7.006;2023-06-01T05:25:23;567.80;;;172.43;;
4202;SDS011;2115;51.038;7.006;2023-06-01T05:27:48;564.87;;;175.47;;
4202;SDS011;2115;51.038;7.006;2023-06-01T05:30:14;557.57;;;172.10;;
4202;SDS011;2115;51.038;7.006;2023-06-01T05:32:39;548.63;;;169.63;;
4202;SDS011;2115;51.038;7.006;2023-06-01T05:35:05;563.03;;;178.80;;
4202;SDS011;2115;51.038;7.006;2023-06-01T05:37:31;568.80;;;177.77;;
4202;SDS011;2115;51.038;7.006;2023-06-01T05:39:56;565.37;;;174.43;;
4202;SDS011;2115;51.038;7.006;2023-06-01T05:42:22;570.50;;;178.27;;
4202;SDS011;2115;51.038;7.006;2023-06-01T05:44:47;568.40;;;175.73;;
4202;SDS011;2115;51.038;7.006;2023-06-01T05:47:13;554.47;;;172.83;;
4202;SDS011;2115;51.038;7.006;2023-06-01T05:49:38;553.00;;;171.77;;
4202;SDS011;2115;51.038;7.006;2023-06-01T05:52:04;559.57;;;170.37;;
4202;SDS011;2115;51.038;7.006;2023-06-01T05:54:30;574.40;;;178.97;;
4202;SDS011;2115;51.038;7.006;2023-06-01T05:56:56;567.83;;;177.97;;
4202;SDS011;2115;51.038;7.006;2023-06-01T05:59:21;561.57;;;169.73;;
4202;SDS011;2115;51.038;7.006;2023-06-01T06:01:47;563.97;;;175.70;;
4202;SDS011;2115;51.038;7.006;2023-06-01T06:04:15;555.47;;;174.07;;
4202;SDS011;2115;51.038;7.006;2023-06-01T06:06:41;573.60;;;173.33;;
4202;SDS011;2115;51.038;7.006;2023-06-01T06:09:06;570.33;;;177.10;;
4202;SDS011;2115;51.038;7.006;2023-06-01T06:11:32;566.97;;;176.00;;
4202;SDS011;2115;51.038;7.006;2023-06-01T06:13:57;558.07;;;170.47;;
4202;SDS011;2115;51.038;7.006;2023-06-01T06:16:23;466.63;;;140.77;;
4202;SDS011;2115;51.038;7.006;2023-06-01T06:18:48;566.73;;;176.77;;
4202;SDS011;2115;51.038;7.006;2023-06-01T06:21:13;567.63;;;180.70;;
4202;SDS011;2115;51.038;7.006;2023-06-01T06:23:39;550.20;;;168.97;;
4202;SDS011;2115;51.038;7.006;2023-06-01T06:26:05;559.90;;;170.97;;
4202;SDS011;2115;51.038;7.006;2023-06-01T06:28:31;548.13;;;167.27;;
4202;SDS011;2115;51.038;7.006;2023-06-01T06:30:57;431.13;;;125.70;;
4202;SDS011;2115;51.038;7.006;2023-06-01T06:33:22;468.53;;;139.47;;
4202;SDS011;2115;51.038;7.006;2023-06-01T06:35:48;561.13;;;175.67;;
4202;SDS011;2115;51.038;7.006;2023-06-01T06:38:13;557.43;;;174.57;;
4202;SDS011;2115;51.038;7.006;2023-06-01T06:40:39;569.33;;;178.47;;
4202;SDS011;2115;51.038;7.006;2023-06-01T06:43:04;560.57;;;173.87;;
4202;SDS011;2115;51.038;7.006;2023-06-01T06:45:30;551.73;;;167.93;;
4202;SDS011;2115;51.038;7.006;2023-06-01T06:47:55;559.57;;;171.90;;
4202;SDS011;2115;51.038;7.006;2023-06-01T06:50:20;564.57;;;171.83;;
4202;SDS011;2115;51.038;7.006;2023-06-01T06:52:46;548.93;;;170.57;;
4202;SDS011;2115;51.038;7.006;2023-06-01T06:55:11;562.27;;;174.93;;
4202;SDS011;2115;51.038;7.006;2023-06-01T06:57:37;554.97;;;173.53;;
4202;SDS011;2115;51.038;7.006;2023-06-01T07:00:05;556.63;;;171.47;;
4202;SDS011;2115;51.038;7.006;2023-06-01T07:02:32;573.70;;;176.67;;
4202;SDS011;2115;51.038;7.006;2023-06-01T07:04:57;568.37;;;177.83;;
4202;SDS011;2115;51.038;7.006;2023-06-01T07:07:23;568.67;;;176.80;;
4202;SDS011;2115;51.038;7.006;2023-06-01T07:09:48;558.87;;;174.70;;
4202;SDS011;2115;51.038;7.006;2023-06-01T07:12:13;566.23;;;177.20;;
4202;SDS011;2115;51.038;7.006;2023-06-01T07:14:39;464.50;;;137.77;;
4202;SDS011;2115;51.038;7.006;2023-06-01T07:17:05;542.80;;;164.90;;
4202;SDS011;2115;51.038;7.006;2023-06-01T07:19:30;442.20;;;130.17;;
4202;SDS011;2115;51.038;7.006;2023-06-01T07:21:58;547.03;;;164.53;;
4202;SDS011;2115;51.038;7.006;2023-06-01T07:24:25;555.90;;;170.03;;
4202;SDS011;2115;51.038;7.006;2023-06-01T07:26:51;561.37;;;172.67;;
4202;SDS011;2115;51.038;7.006;2023-06-01T07:29:16;575.13;;;182.57;;
4202;SDS011;2115;51.038;7.006;2023-06-01T07:31:42;470.50;;;141.37;;
4202;SDS011;2115;51.038;7.006;2023-06-01T07:34:08;558.63;;;173.13;;
4202;SDS011;2115;51.038;7.006;2023-06-01T07:36:34;436.90;;;130.30;;
4202;SDS011;2115;51.038;7.006;2023-06-01T07:39:02;532.33;;;158.03;;
4202;SDS011;2115;51.038;7.006;2023-06-01T07:41:31;556.20;;;172.93;;
4202;SDS011;2115;51.038;7.006;2023-06-01T07:43:56;555.63;;;168.97;;
4202;SDS011;2115;51.038;7.006;2023-06-01T07:46:22;556.93;;;171.73;;
4202;SDS011;2115;51.038;7.006;2023-06-01T07:48:47;551.07;;;170.27;;
4202;SDS011;2115;51.038;7.006;2023-06-01T07:51:13;551.87;;;167.77;;
4202;SDS011;2115;51.038;7.006;2023-06-01T07:53:38;446.93;;;133.77;;
4202;SDS011;2115;51.038;7.006;2023-06-01T07:56:04;465.33;;;140.67;;
4202;SDS011;2115;51.038;7.006;2023-06-01T07:58:29;545.30;;;167.73;;
4202;SDS011;2115;51.038;7.006;2023-06-01T08:00:55;557.77;;;172.13;;
4202;SDS011;2115;51.038;7.006;2023-06-01T08:03:20;556.33;;;171.50;;
4202;SDS011;2115;51.038;7.006;2023-06-01T08:05:46;562.90;;;172.30;;
4202;SDS011;2115;51.038;7.006;2023-06-01T08:08:11;553.10;;;166.70;;
4202;SDS011;2115;51.038;7.006;2023-06-01T08:10:37;570.13;;;173.37;;
4202;SDS011;2115;51.038;7.006;2023-06-01T08:13:04;565.33;;;173.03;;
4202;SDS011;2115;51.038;7.006;2023-06-01T08:15:29;450.03;;;133.30;;
4202;SDS011;2115;51.038;7.006;2023-06-01T08:17:55;559.53;;;170.07;;
4202;SDS011;2115;51.038;7.006;2023-06-01T08:20:22;555.00;;;169.53;;
4202;SDS011;2115;51.038;7.006;2023-06-01T08:22:48;553.03;;;165.93;;
4202;SDS011;2115;51.038;7.006;2023-06-01T08:25:14;559.77;;;173.47;;
4202;SDS011;2115;51.038;7.006;2023-06-01T08:27:40;565.50;;;174.03;;
4202;SDS011;2115;51.038;7.006;2023-06-01T08:30:07;553.60;;;173.27;;
4202;SDS011;2115;51.038;7.006;2023-06-01T08:32:33;561.90;;;174.80;;
4202;SDS011;2115;51.038;7.006;2023-06-01T08:34:58;565.40;;;176.60;;
4202;SDS011;2115;51.038;7.006;2023-06-01T08:37:24;569.10;;;182.63;;
4202;SDS011;2115;51.038;7.006;2023-06-01T08:39:49;566.73;;;177.83;;
4202;SDS011;2115;51.038;7.006;2023-06-01T08:44:53;565.50;;;177.30;;
4202;SDS011;2115;51.038;7.006;2023-06-01T08:47:22;565.00;;;178.63;;
4202;SDS011;2115;51.038;7.006;2023-06-01T08:49:49;574.90;;;181.13;;
4202;SDS011;2115;51.038;7.006;2023-06-01T08:52:22;562.97;;;177.00;;
4202;SDS011;2115;51.038;7.006;2023-06-01T08:54:52;567.37;;;176.20;;
4202;SDS011;2115;51.038;7.006;2023-06-01T08:57:18;567.33;;;177.80;;
4202;SDS011;2115;51.038;7.006;2023-06-01T08:59:45;585.37;;;180.40;;
4202;SDS011;2115;51.038;7.006;2023-06-01T09:02:10;487.47;;;149.37;;
4202;SDS011;2115;51.038;7.006;2023-06-01T09:04:36;560.97;;;176.50;;
4202;SDS011;2115;51.038;7.006;2023-06-01T09:07:06;570.13;;;179.50;;
4202;SDS011;2115;51.038;7.006;2023-06-01T09:09:32;444.30;;;133.07;;
4202;SDS011;2115;51.038;7.006;2023-06-01T09:14:42;458.73;;;138.83;;
4202;SDS011;2115;51.038;7.006;2023-06-01T09:17:12;583.27;;;187.23;;
4202;SDS011;2115;51.038;7.006;2023-06-01T09:19:46;446.77;;;131.03;;
4202;SDS011;2115;51.038;7.006;2023-06-01T09:22:12;564.60;;;173.43;;
4202;SDS011;2115;51.038;7.006;2023-06-01T09:24:38;574.57;;;177.83;;
4202;SDS011;2115;51.038;7.006;2023-06-01T09:27:06;561.57;;;171.23;;
4202;SDS011;2115;51.038;7.006;2023-06-01T09:29:31;559.77;;;175.10;;
4202;SDS011;2115;51.038;7.006;2023-06-01T09:31:57;586.43;;;189.33;;
4202;SDS011;2115;51.038;7.006;2023-06-01T09:34:25;572.33;;;184.97;;
4202;SDS011;2115;51.038;7.006;2023-06-01T09:39:18;573.33;;;188.43;;
4202;SDS011;2115;51.038;7.006;2023-06-01T09:44:14;588.87;;;194.77;;
4202;SDS011;2115;51.038;7.006;2023-06-01T09:46:51;583.87;;;189.67;;
4202;SDS011;2115;51.038;7.006;2023-06-01T09:49:18;585.40;;;191.73;;
4202;SDS011;2115;51.038;7.006;2023-06-01T09:54:36;574.40;;;192.53;;
4202;SDS011;2115;51.038;7.006;2023-06-01T09:57:12;584.40;;;189.33;;
4202;SDS011;2115;51.038;7.006;2023-06-01T09:59:39;581.33;;;194.87;;
4202;SDS011;2115;51.038;7.006;2023-06-01T10:02:05;586.83;;;197.23;;
4202;SDS011;2115;51.038;7.006;2023-06-01T10:04:32;589.17;;;193.33;;
4202;SDS011;2115;51.038;7.006;2023-06-01T10:06:59;589.33;;;199.50;;
4202;SDS011;2115;51.038;7.006;2023-06-01T10:09:25;588.27;;;196.70;;
4202;SDS011;2115;51.038;7.006;2023-06-01T10:11:54;588.30;;;200.40;;
4202;SDS011;2115;51.038;7.006;2023-06-01T10:14:21;576.63;;;198.97;;
4202;SDS011;2115;51.038;7.006;2023-06-01T10:16:48;589.13;;;207.50;;
4202;SDS011;2115;51.038;7.006;2023-06-01T10:19:15;597.70;;;215.93;;
4202;SDS011;2115;51.038;7.006;2023-06-01T10:21:41;581.10;;;202.13;;
4202;SDS011;2115;51.038;7.006;2023-06-01T10:24:08;588.70;;;207.97;;
4202;SDS011;2115;51.038;7.006;2023-06-01T10:26:38;592.40;;;210.10;;
4202;SDS011;2115;51.038;7.006;2023-06-01T10:29:06;599.17;;;218.97;;
4202;SDS011;2115;51.038;7.006;2023-06-01T10:31:37;637.60;;;237.23;;
4202;SDS011;2115;51.038;7.006;2023-06-01T10:34:04;603.63;;;230.33;;
4202;SDS011;2115;51.038;7.006;2023-06-01T10:39:21;616.50;;;234.37;;
4202;SDS011;2115;51.038;7.006;2023-06-01T10:41:54;611.57;;;232.87;;
4202;SDS011;2115;51.038;7.006;2023-06-01T10:54:52;597.23;;;227.87;;
4202;SDS011;2115;51.038;7.006;2023-06-01T10:57:18;607.83;;;241.93;;
4202;SDS011;2115;51.038;7.006;2023-06-01T11:08:01;603.63;;;253.07;;
4202;SDS011;2115;51.038;7.006;2023-06-01T11:13:30;598.70;;;239.17;;
4202;SDS011;2115;51.038;7.006;2023-06-01T11:18:42;602.07;;;244.27;;
4202;SDS011;2115;51.038;7.006;2023-06-01T11:21:20;598.97;;;249.17;;
4202;SDS011;2115;51.038;7.006;2023-06-01T11:23:47;602.13;;;255.10;;
4202;SDS011;2115;51.038;7.006;2023-06-01T11:26:17;605.00;;;258.80;;
4202;SDS011;2115;51.038;7.006;2023-06-01T11:28:43;615.80;;;268.73;;
4202;SDS011;2115;51.038;7.006;2023-06-01T11:31:10;609.60;;;268.53;;
4202;SDS011;2115;51.038;7.006;2023-06-01T11:33:37;602.33;;;274.73;;
4202;SDS011;2115;51.038;7.006;2023-06-01T11:36:04;607.97;;;279.53;;
4202;SDS011;2115;51.038;7.006;2023-06-01T11:38:42;609.63;;;292.80;;
4202;SDS011;2115;51.038;7.006;2023-06-01T11:41:10;612.50;;;288.57;;
4202;SDS011;2115;51.038;7.006;2023-06-01T11:43:36;603.17;;;279.33;;
4202;SDS011;2115;51.038;7.006;2023-06-01T11:46:02;603.40;;;289.70;;
4202;SDS011;2115;51.038;7.006;2023-06-01T11:48:32;608.27;;;297.23;;
4202;SDS011;2115;51.038;7.006;2023-06-01T11:50:59;612.57;;;294.87;;
4202;SDS011;2115;51.038;7.006;2023-06-01T11:53:25;597.83;;;285.00;;
4202;SDS011;2115;51.038;7.006;2023-06-01T11:55:51;607.53;;;304.77;;
4202;SDS011;2115;51.038;7.006;2023-06-01T11:58:26;614.57;;;305.00;;
4202;SDS011;2115;51.038;7.006;2023-06-01T12:00:53;611.73;;;298.13;;
4202;SDS011;2115;51.038;7.006;2023-06-01T12:03:19;608.63;;;300.83;;
4202;SDS011;2115;51.038;7.006;2023-06-01T12:05:45;649.33;;;380.83;;
4202;SDS011;2115;51.038;7.006;2023-06-01T12:08:21;637.87;;;379.37;;
4202;SDS011;2115;51.038;7.006;2023-06-01T12:10:48;684.17;;;403.30;;
4202;SDS011;2115;51.038;7.006;2023-06-01T12:13:15;674.63;;;398.53;;
4202;SDS011;2115;51.038;7.006;2023-06-01T12:15:44;686.97;;;403.93;;
4202;SDS011;2115;51.038;7.006;2023-06-01T12:18:10;664.43;;;405.57;;
4202;SDS011;2115;51.038;7.006;2023-06-01T12:20:37;662.90;;;401.30;;
4202;SDS011;2115;51.038;7.006;2023-06-01T12:25:56;655.27;;;403.17;;
4202;SDS011;2115;51.038;7.006;2023-06-01T12:28:23;732.70;;;454.13;;
4202;SDS011;2115;51.038;7.006;2023-06-01T12:31:11;640.10;;;381.83;;
4202;SDS011;2115;51.038;7.006;2023-06-01T12:33:38;769.30;;;625.57;;
4202;SDS011;2115;51.038;7.006;2023-06-01T12:36:04;1035.03;;;927.27;;
4202;SDS011;2115;51.038;7.006;2023-06-01T12:38:50;1020.83;;;921.63;;
4202;SDS011;2115;51.038;7.006;2023-06-01T12:41:17;634.67;;;419.57;;
4202;SDS011;2115;51.038;7.006;2023-06-01T12:43:46;634.13;;;420.50;;
4202;SDS011;2115;51.038;7.006;2023-06-01T12:46:19;666.03;;;437.40;;
4202;SDS011;2115;51.038;7.006;2023-06-01T12:48:45;644.67;;;442.10;;
4202;SDS011;2115;51.038;7.006;2023-06-01T12:51:11;661.93;;;446.93;;
4202;SDS011;2115;51.038;7.006;2023-06-01T12:53:37;857.30;;;768.87;;
4202;SDS011;2115;51.038;7.006;2023-06-01T12:56:02;968.37;;;874.07;;
4202;SDS011;2115;51.038;7.006;2023-06-01T12:58:28;771.33;;;646.80;;
4202;SDS011;2115;51.038;7.006;2023-06-01T13:00:53;689.70;;;452.67;;
4202;SDS011;2115;51.038;7.006;2023-06-01T13:03:19;616.03;;;400.40;;
4202;SDS011;2115;51.038;7.006;2023-06-01T13:05:46;621.13;;;418.83;;
4202;SDS011;2115;51.038;7.006;2023-06-01T13:08:12;619.20;;;426.47;;
4202;SDS011;2115;51.038;7.006;2023-06-01T13:10:38;622.67;;;433.00;;
4202;SDS011;2115;51.038;7.006;2023-06-01T13:13:03;1078.70;;;973.73;;
4202;SDS011;2115;51.038;7.006;2023-06-01T13:15:29;1107.83;;;999.07;;
4202;SDS011;2115;51.038;7.006;2023-06-01T13:17:54;965.77;;;872.87;;
4202;SDS011;2115;51.038;7.006;2023-06-01T13:20:21;1090.17;;;988.30;;
4202;SDS011;2115;51.038;7.006;2023-06-01T13:22:46;1088.83;;;986.93;;
4202;SDS011;2115;51.038;7.006;2023-06-01T13:25:12;1136.37;;;999.90;;
4202;SDS011;2115;51.038;7.006;2023-06-01T13:27:39;816.63;;;713.03;;
4202;SDS011;2115;51.038;7.006;2023-06-01T13:30:04;676.57;;;522.63;;
4202;SDS011;2115;51.038;7.006;2023-06-01T13:32:30;656.33;;;478.07;;
4202;SDS011;2115;51.038;7.006;2023-06-01T13:34:56;630.20;;;453.33;;
4202;SDS011;2115;51.038;7.006;2023-06-01T13:37:21;645.97;;;452.70;;
4202;SDS011;2115;51.038;7.006;2023-06-01T13:39:47;613.17;;;421.10;;
4202;SDS011;2115;51.038;7.006;2023-06-01T13:42:12;619.63;;;421.20;;
4202;SDS011;2115;51.038;7.006;2023-06-01T13:44:38;859.27;;;772.27;;
4202;SDS011;2115;51.038;7.006;2023-06-01T13:47:03;635.27;;;440.37;;
4202;SDS011;2115;51.038;7.006;2023-06-01T13:49:29;1104.13;;;997.30;;
4202;SDS011;2115;51.038;7.006;2023-06-01T13:51:54;616.97;;;444.07;;
4202;SDS011;2115;51.038;7.006;2023-06-01T13:54:20;605.77;;;452.07;;
4202;SDS011;2115;51.038;7.006;2023-06-01T13:56:46;640.17;;;488.97;;
4202;SDS011;2115;51.038;7.006;2023-06-01T13:59:12;614.97;;;460.50;;
4202;SDS011;2115;51.038;7.006;2023-06-01T14:01:37;726.03;;;626.00;;
4202;SDS011;2115;51.038;7.006;2023-06-01T14:04:02;674.13;;;545.33;;
4202;SDS011;2115;51.038;7.006;2023-06-01T14:06:28;621.47;;;447.27;;
4202;SDS011;2115;51.038;7.006;2023-06-01T14:08:54;634.60;;;452.03;;
4202;SDS011;2115;51.038;7.006;2023-06-01T14:11:19;673.13;;;520.93;;
4202;SDS011;2115;51.038;7.006;2023-06-01T14:13:45;671.17;;;484.87;;
4202;SDS011;2115;51.038;7.006;2023-06-01T14:16:10;650.60;;;472.13;;
4202;SDS011;2115;51.038;7.006;2023-06-01T14:18:37;1077.93;;;984.53;;
4202;SDS011;2115;51.038;7.006;2023-06-01T14:21:03;595.20;;;434.17;;
4202;SDS011;2115;51.038;7.006;2023-06-01T14:23:28;598.63;;;444.50;;
4202;SDS011;2115;51.038;7.006;2023-06-01T14:25:54;602.73;;;456.30;;
4202;SDS011;2115;51.038;7.006;2023-06-01T14:28:20;604.50;;;445.50;;
4202;SDS011;2115;51.038;7.006;2023-06-01T14:30:45;618.23;;;458.83;;
4202;SDS011;2115;51.038;7.006;2023-06-01T14:33:14;616.50;;;460.50;;
4202;SDS011;2115;51.038;7.006;2023-06-01T14:35:43;617.23;;;468.97;;
4202;SDS011;2115;51.038;7.006;2023-06-01T14:38:08;621.70;;;473.67;;
4202;SDS011;2115;51.038;7.006;2023-06-01T14:40:34;609.93;;;461.63;;
4202;SDS011;2115;51.038;7.006;2023-06-01T14:42:59;606.83;;;449.63;;
4202;SDS011;2115;51.038;7.006;2023-06-01T14:45:25;620.10;;;462.20;;
4202;SDS011;2115;51.038;7.006;2023-06-01T14:47:50;639.47;;;489.40;;
4202;SDS011;2115;51.038;7.006;2023-06-01T14:50:15;622.00;;;437.50;;
4202;SDS011;2115;51.038;7.006;2023-06-01T14:52:41;626.13;;;442.07;;
4202;SDS011;2115;51.038;7.006;2023-06-01T14:55:06;620.40;;;433.07;;
4202;SDS011;2115;51.038;7.006;2023-06-01T14:57:32;617.03;;;434.23;;
4202;SDS011;2115;51.038;7.006;2023-06-01T14:59:58;607.10;;;426.07;;
4202;SDS011;2115;51.038;7.006;2023-06-01T15:02:23;604.47;;;416.13;;
4202;SDS011;2115;51.038;7.006;2023-06-01T15:04:48;624.33;;;415.40;;
4202;SDS011;2115;51.038;7.006;2023-06-01T15:07:14;605.90;;;426.37;;
4202;SDS011;2115;51.038;7.006;2023-06-01T15:09:39;612.20;;;435.40;;
4202;SDS011;2115;51.038;7.006;2023-06-01T15:12:05;629.67;;;477.47;;
4202;SDS011;2115;51.038;7.006;2023-06-01T15:14:30;594.30;;;443.03;;